sensor_id;sensor_type;location;lat;lon;timestamp;temperature;humidity
5705;DHT22;2877;48.238;11.160;2023-03-01T00:00:40;0.50;99.90
5705;DHT22;2877;48.238;11.160;2023-03-01T00:03:06;0.60;99.90
5705;DHT22;2877;48.238;11.160;2023-03-01T00:05:32;0.50;99.90
5705;DHT22;2877;48.238;11.160;2023-03-01T00:07:58;0.60;99.90
5705;DHT22;2877;48.238;11.160;2023-03-01T00:10:23;0.60;99.90
5705;DHT22;2877;48.238;11.160;2023-03-01T00:12:49;0.60;99.90
5705;DHT22;2877;48.238;11.160;2023-03-01T00:15:14;0.60;99.90
5705;DHT22;2877;48.238;11.160;2023-03-01T00:17:40;0.60;99.90
5705;DHT22;2877;48.238;11.160;2023-03-01T00:20:06;0.60;99.90
5705;DHT22;2877;48.238;11.160;2023-03-01T00:22:35;0.60;99.90
5705;DHT22;2877;48.238;11.160;2023-03-01T00:25:01;0.60;99.90
5705;DHT22;2877;48.238;11.160;2023-03-01T00:27:27;0.60;99.90
5705;DHT22;2877;48.238;11.160;2023-03-01T00:29:52;0.60;99.90
5705;DHT22;2877;48.238;11.160;2023-03-01T00:32:18;0.60;99.90
5705;DHT22;2877;48.238;11.160;2023-03-01T00:34:43;0.60;99.90
5705;DHT22;2877;48.238;11.160;2023-03-01T00:37:22;0.60;99.90
5705;DHT22;2877;48.238;11.160;2023-03-01T00:39:48;0.60;99.90
5705;DHT22;2877;48.238;11.160;2023-03-01T00:42:13;0.60;99.90
5705;DHT22;2877;48.238;11.160;2023-03-01T00:44:39;0.60;99.90
5705;DHT22;2877;48.238;11.160;2023-03-01T00:47:04;0.60;99.90
5705;DHT22;2877;48.238;11.160;2023-03-01T00:49:30;0.50;99.90
5705;DHT22;2877;48.238;11.160;2023-03-01T00:51:56;0.60;99.90
5705;DHT22;2877;48.238;11.160;2023-03-01T00:54:21;0.50;99.90
5705;DHT22;2877;48.238;11.160;2023-03-01T00:56:47;0.50;99.90
5705;DHT22;2877;48.238;11.160;2023-03-01T00:59:12;0.50;99.90
5705;DHT22;2877;48.238;11.160;2023-03-01T01:01:38;0.50;99.90
5705;DHT22;2877;48.238;11.160;2023-03-01T01:04:08;0.50;99.90
5705;DHT22;2877;48.238;11.160;2023-03-01T01:06:43;0.50;99.90
5705;DHT22;2877;48.238;11.160;2023-03-01T01:09:11;0.50;99.90
5705;DHT22;2877;48.238;11.160;2023-03-01T01:11:43;0.50;99.90
5705;DHT22;2877;48.238;11.160;2023-03-01T01:14:08;0.50;99.90
5705;DHT22;2877;48.238;11.160;2023-03-01T01:16:34;0.50;99.90
5705;DHT22;2877;48.238;11.160;2023-03-01T01:18:59;0.50;99.90
5705;DHT22;2877;48.238;11.160;2023-03-01T01:21:26;0.50;99.90
5705;DHT22;2877;48.238;11.160;2023-03-01T01:23:53;0.50;99.90
5705;DHT22;2877;48.238;11.160;2023-03-01T01:26:29;0.50;99.90
5705;DHT22;2877;48.238;11.160;2023-03-01T01:28:55;0.50;99.90
5705;DHT22;2877;48.238;11.160;2023-03-01T01:31:22;0.50;99.90
5705;DHT22;2877;48.238;11.160;2023-03-01T01:33:52;0.50;99.90
5705;DHT22;2877;48.238;11.160;2023-03-01T01:36:18;0.50;99.90
5705;DHT22;2877;48.238;11.160;2023-03-01T01:38:44;0.50;99.90
5705;DHT22;2877;48.238;11.160;2023-03-01T01:41:11;0.50;99.90
5705;DHT22;2877;48.238;11.160;2023-03-01T01:43:47;0.50;99.90
5705;DHT22;2877;48.238;11.160;2023-03-01T01:46:29;0.50;99.90
5705;DHT22;2877;48.238;11.160;2023-03-01T01:49:01;0.50;99.90
5705;DHT22;2877;48.238;11.160;2023-03-01T01:51:39;0.50;99.90
5705;DHT22;2877;48.238;11.160;2023-03-01T01:54:23;0.50;99.90
5705;DHT22;2877;48.238;11.160;2023-03-01T01:56:55;0.50;99.90
5705;DHT22;2877;48.238;11.160;2023-03-01T01:59:23;0.50;99.90
5705;DHT22;2877;48.238;11.160;2023-03-01T02:01:51;0.50;99.90
5705;DHT22;2877;48.238;11.160;2023-03-01T02:04:17;0.50;99.90
5705;DHT22;2877;48.238;11.160;2023-03-01T02:06:51;0.40;99.90
5705;DHT22;2877;48.238;11.160;2023-03-01T02:09:21;0.40;99.90
5705;DHT22;2877;48.238;11.160;2023-03-01T02:11:49;0.40;99.90
5705;DHT22;2877;48.238;11.160;2023-03-01T02:14:15;0.40;99.90
5705;DHT22;2877;48.238;11.160;2023-03-01T02:16:41;0.40;99.90
5705;DHT22;2877;48.238;11.160;2023-03-01T02:19:08;0.40;99.90
5705;DHT22;2877;48.238;11.160;2023-03-01T02:22:07;0.40;99.90
5705;DHT22;2877;48.238;11.160;2023-03-01T02:25:20;0.40;99.90
5705;DHT22;2877;48.238;11.160;2023-03-01T02:27:59;0.40;99.90
5705;DHT22;2877;48.238;11.160;2023-03-01T02:30:27;0.40;99.90
5705;DHT22;2877;48.238;11.160;2023-03-01T02:32:55;0.40;99.90
5705;DHT22;2877;48.238;11.160;2023-03-01T02:35:35;0.40;99.90
5705;DHT22;2877;48.238;11.160;2023-03-01T02:38:03;0.40;99.90
5705;DHT22;2877;48.238;11.160;2023-03-01T02:40:33;0.40;99.90
5705;DHT22;2877;48.238;11.160;2023-03-01T02:42:59;0.40;99.90
5705;DHT22;2877;48.238;11.160;2023-03-01T02:45:26;0.40;99.90
5705;DHT22;2877;48.238;11.160;2023-03-01T02:47:55;0.40;99.90
5705;DHT22;2877;48.238;11.160;2023-03-01T02:50:31;0.40;99.90
5705;DHT22;2877;48.238;11.160;2023-03-01T02:53:10;0.30;99.90
5705;DHT22;2877;48.238;11.160;2023-03-01T02:55:38;0.30;99.90
5705;DHT22;2877;48.238;11.160;2023-03-01T02:58:04;0.30;99.90
5705;DHT22;2877;48.238;11.160;2023-03-01T03:00:42;0.30;99.90
5705;DHT22;2877;48.238;11.160;2023-03-01T03:03:14;0.30;99.90
5705;DHT22;2877;48.238;11.160;2023-03-01T03:05:40;0.30;99.90
5705;DHT22;2877;48.238;11.160;2023-03-01T03:08:06;0.30;99.90
5705;DHT22;2877;48.238;11.160;2023-03-01T03:10:36;0.30;99.90
5705;DHT22;2877;48.238;11.160;2023-03-01T03:13:04;0.30;99.90
5705;DHT22;2877;48.238;11.160;2023-03-01T03:15:31;0.30;99.90
5705;DHT22;2877;48.238;11.160;2023-03-01T03:17:58;0.30;99.90
5705;DHT22;2877;48.238;11.160;2023-03-01T03:20:26;0.30;99.90
5705;DHT22;2877;48.238;11.160;2023-03-01T03:22:54;0.30;99.90
5705;DHT22;2877;48.238;11.160;2023-03-01T03:25:21;0.30;99.90
5705;DHT22;2877;48.238;11.160;2023-03-01T03:27:48;0.30;99.90
5705;DHT22;2877;48.238;11.160;2023-03-01T03:30:17;0.30;99.90
5705;DHT22;2877;48.238;11.160;2023-03-01T03:32:44;0.30;99.90
5705;DHT22;2877;48.238;11.160;2023-03-01T03:35:28;0.30;99.90
5705;DHT22;2877;48.238;11.160;2023-03-01T03:37:57;0.30;99.90
5705;DHT22;2877;48.238;11.160;2023-03-01T03:40:40;0.30;99.90
5705;DHT22;2877;48.238;11.160;2023-03-01T03:43:12;0.30;99.90
5705;DHT22;2877;48.238;11.160;2023-03-01T03:45:38;0.30;99.90
5705;DHT22;2877;48.238;11.160;2023-03-01T03:48:05;0.30;99.90
5705;DHT22;2877;48.238;11.160;2023-03-01T03:50:32;0.30;99.90
5705;DHT22;2877;48.238;11.160;2023-03-01T03:52:57;0.30;99.90
5705;DHT22;2877;48.238;11.160;2023-03-01T03:55:25;0.20;99.90
5705;DHT22;2877;48.238;11.160;2023-03-01T03:57:57;0.20;99.90
5705;DHT22;2877;48.238;11.160;2023-03-01T04:00:24;0.20;99.90
5705;DHT22;2877;48.238;11.160;2023-03-01T04:02:50;0.20;99.90
5705;DHT22;2877;48.238;11.160;2023-03-01T04:05:17;0.20;99.90
5705;DHT22;2877;48.238;11.160;2023-03-01T04:07:43;0.20;99.90
5705;DHT22;2877;48.238;11.160;2023-03-01T04:10:11;0.20;99.90
5705;DHT22;2877;48.238;11.160;2023-03-01T04:12:37;0.20;99.90
5705;DHT22;2877;48.238;11.160;2023-03-01T04:15:07;0.10;99.90
5705;DHT22;2877;48.238;11.160;2023-03-01T04:17:46;0.10;99.90
5705;DHT22;2877;48.238;11.160;2023-03-01T04:20:14;0.10;99.90
5705;DHT22;2877;48.238;11.160;2023-03-01T04:22:43;0.10;99.90
5705;DHT22;2877;48.238;11.160;2023-03-01T04:25:12;0.10;99.90
5705;DHT22;2877;48.238;11.160;2023-03-01T04:27:40;0.00;99.90
5705;DHT22;2877;48.238;11.160;2023-03-01T04:30:07;0.00;99.90
5705;DHT22;2877;48.238;11.160;2023-03-01T04:32:33;0.00;99.90
5705;DHT22;2877;48.238;11.160;2023-03-01T04:34:59;0.00;99.90
5705;DHT22;2877;48.238;11.160;2023-03-01T04:37:25;0.00;99.90
5705;DHT22;2877;48.238;11.160;2023-03-01T04:39:50;-0.10;99.90
5705;DHT22;2877;48.238;11.160;2023-03-01T04:42:16;-0.10;99.90
5705;DHT22;2877;48.238;11.160;2023-03-01T04:44:42;-0.10;99.90
5705;DHT22;2877;48.238;11.160;2023-03-01T04:47:08;-0.10;99.90
5705;DHT22;2877;48.238;11.160;2023-03-01T04:49:34;-0.10;99.90
5705;DHT22;2877;48.238;11.160;2023-03-01T04:51:59;-0.10;99.90
5705;DHT22;2877;48.238;11.160;2023-03-01T04:54:36;-0.20;99.90
5705;DHT22;2877;48.238;11.160;2023-03-01T04:57:03;-0.20;99.90
5705;DHT22;2877;48.238;11.160;2023-03-01T04:59:29;-0.20;99.90
5705;DHT22;2877;48.238;11.160;2023-03-01T05:01:56;-0.20;99.90
5705;DHT22;2877;48.238;11.160;2023-03-01T05:04:23;-0.20;99.90
5705;DHT22;2877;48.238;11.160;2023-03-01T05:06:49;-0.30;99.90
5705;DHT22;2877;48.238;11.160;2023-03-01T05:09:15;-0.30;99.90
5705;DHT22;2877;48.238;11.160;2023-03-01T05:11:41;-0.40;99.90
5705;DHT22;2877;48.238;11.160;2023-03-01T05:14:08;-0.40;99.90
5705;DHT22;2877;48.238;11.160;2023-03-01T05:16:34;-0.50;99.90
5705;DHT22;2877;48.238;11.160;2023-03-01T05:19:01;-0.60;99.90
5705;DHT22;2877;48.238;11.160;2023-03-01T05:21:39;-0.80;99.90
5705;DHT22;2877;48.238;11.160;2023-03-01T05:24:25;-0.90;99.90
5705;DHT22;2877;48.238;11.160;2023-03-01T05:26:50;-1.00;99.90
5705;DHT22;2877;48.238;11.160;2023-03-01T05:29:20;-1.10;99.90
5705;DHT22;2877;48.238;11.160;2023-03-01T05:31:54;-1.10;99.90
5705;DHT22;2877;48.238;11.160;2023-03-01T05:34:28;-1.20;99.90
5705;DHT22;2877;48.238;11.160;2023-03-01T05:36:54;-1.30;99.90
5705;DHT22;2877;48.238;11.160;2023-03-01T05:39:21;-1.40;99.90
5705;DHT22;2877;48.238;11.160;2023-03-01T05:41:48;-1.50;99.90
5705;DHT22;2877;48.238;11.160;2023-03-01T05:44:13;-1.50;99.90
5705;DHT22;2877;48.238;11.160;2023-03-01T05:46:39;-1.60;99.90
5705;DHT22;2877;48.238;11.160;2023-03-01T05:49:04;-1.60;99.90
5705;DHT22;2877;48.238;11.160;2023-03-01T05:51:30;-1.70;99.90
5705;DHT22;2877;48.238;11.160;2023-03-01T05:53:56;-1.60;99.90
5705;DHT22;2877;48.238;11.160;2023-03-01T05:56:21;-1.60;99.90
5705;DHT22;2877;48.238;11.160;2023-03-01T05:58:48;-1.60;99.90
5705;DHT22;2877;48.238;11.160;2023-03-01T06:01:15;-1.50;99.90
5705;DHT22;2877;48.238;11.160;2023-03-01T06:03:40;-1.50;99.90
5705;DHT22;2877;48.238;11.160;2023-03-01T06:06:06;-1.40;99.90
5705;DHT22;2877;48.238;11.160;2023-03-01T06:08:31;-1.30;99.90
5705;DHT22;2877;48.238;11.160;2023-03-01T06:10:57;-1.30;99.90
5705;DHT22;2877;48.238;11.160;2023-03-01T06:13:23;-1.20;99.90
5705;DHT22;2877;48.238;11.160;2023-03-01T06:15:49;-1.20;99.90
5705;DHT22;2877;48.238;11.160;2023-03-01T06:18:15;-1.20;99.90
5705;DHT22;2877;48.238;11.160;2023-03-01T06:20:41;-1.10;99.90
5705;DHT22;2877;48.238;11.160;2023-03-01T06:23:06;-1.10;99.90
5705;DHT22;2877;48.238;11.160;2023-03-01T06:25:32;-1.10;99.90
5705;DHT22;2877;48.238;11.160;2023-03-01T06:27:57;-1.10;99.90
5705;DHT22;2877;48.238;11.160;2023-03-01T06:30:24;-1.00;99.90
5705;DHT22;2877;48.238;11.160;2023-03-01T06:32:50;-1.00;99.90
5705;DHT22;2877;48.238;11.160;2023-03-01T06:35:17;-0.90;99.90
5705;DHT22;2877;48.238;11.160;2023-03-01T06:37:43;-0.90;99.90
5705;DHT22;2877;48.238;11.160;2023-03-01T06:40:10;-0.90;99.90
5705;DHT22;2877;48.238;11.160;2023-03-01T06:42:38;-0.90;99.90
5705;DHT22;2877;48.238;11.160;2023-03-01T06:45:05;-0.80;99.90
5705;DHT22;2877;48.238;11.160;2023-03-01T06:47:32;-0.80;99.90
5705;DHT22;2877;48.238;11.160;2023-03-01T06:49:58;-0.80;99.90
5705;DHT22;2877;48.238;11.160;2023-03-01T06:52:24;-0.80;99.90
5705;DHT22;2877;48.238;11.160;2023-03-01T06:54:50;-0.80;99.90
5705;DHT22;2877;48.238;11.160;2023-03-01T06:57:15;-0.70;99.90
5705;DHT22;2877;48.238;11.160;2023-03-01T06:59:41;-0.70;99.90
5705;DHT22;2877;48.238;11.160;2023-03-01T07:02:08;-0.70;99.90
5705;DHT22;2877;48.238;11.160;2023-03-01T07:04:34;-0.70;99.90
5705;DHT22;2877;48.238;11.160;2023-03-01T07:07:00;-0.70;99.90
5705;DHT22;2877;48.238;11.160;2023-03-01T07:09:26;-0.60;99.90
5705;DHT22;2877;48.238;11.160;2023-03-01T07:11:51;-0.60;99.90
5705;DHT22;2877;48.238;11.160;2023-03-01T07:14:17;-0.60;99.90
5705;DHT22;2877;48.238;11.160;2023-03-01T07:16:42;-0.60;99.90
5705;DHT22;2877;48.238;11.160;2023-03-01T07:19:08;-0.50;99.90
5705;DHT22;2877;48.238;11.160;2023-03-01T07:21:33;-0.50;99.90
5705;DHT22;2877;48.238;11.160;2023-03-01T07:23:59;-0.50;99.90
5705;DHT22;2877;48.238;11.160;2023-03-01T07:26:24;-0.40;99.90
5705;DHT22;2877;48.238;11.160;2023-03-01T07:28:50;-0.40;99.90
5705;DHT22;2877;48.238;11.160;2023-03-01T07:31:16;-0.30;99.90
5705;DHT22;2877;48.238;11.160;2023-03-01T07:33:41;-0.30;99.90
5705;DHT22;2877;48.238;11.160;2023-03-01T07:36:07;-0.20;99.90
5705;DHT22;2877;48.238;11.160;2023-03-01T07:38:33;-0.20;99.90
5705;DHT22;2877;48.238;11.160;2023-03-01T07:41:00;-0.20;99.90
5705;DHT22;2877;48.238;11.160;2023-03-01T07:43:28;-0.20;99.90
5705;DHT22;2877;48.238;11.160;2023-03-01T07:45:54;-0.10;99.90
5705;DHT22;2877;48.238;11.160;2023-03-01T07:48:19;-0.10;99.90
5705;DHT22;2877;48.238;11.160;2023-03-01T07:50:45;0.00;99.90
5705;DHT22;2877;48.238;11.160;2023-03-01T07:53:11;0.00;99.90
5705;DHT22;2877;48.238;11.160;2023-03-01T07:55:37;0.10;99.90
5705;DHT22;2877;48.238;11.160;2023-03-01T07:58:03;0.10;99.90
5705;DHT22;2877;48.238;11.160;2023-03-01T08:00:28;0.10;99.90
5705;DHT22;2877;48.238;11.160;2023-03-01T08:02:54;0.10;99.90
5705;DHT22;2877;48.238;11.160;2023-03-01T08:05:20;0.20;99.90
5705;DHT22;2877;48.238;11.160;2023-03-01T08:07:47;0.20;99.90
5705;DHT22;2877;48.238;11.160;2023-03-01T08:10:13;0.20;99.90
5705;DHT22;2877;48.238;11.160;2023-03-01T08:12:39;0.20;99.90
5705;DHT22;2877;48.238;11.160;2023-03-01T08:15:04;0.20;99.90
5705;DHT22;2877;48.238;11.160;2023-03-01T08:17:30;0.40;99.90
5705;DHT22;2877;48.238;11.160;2023-03-01T08:19:56;0.50;99.90
5705;DHT22;2877;48.238;11.160;2023-03-01T08:22:21;0.60;99.90
5705;DHT22;2877;48.238;11.160;2023-03-01T08:24:47;0.70;99.90
5705;DHT22;2877;48.238;11.160;2023-03-01T08:27:14;0.70;99.90
5705;DHT22;2877;48.238;11.160;2023-03-01T08:29:39;0.80;99.90
5705;DHT22;2877;48.238;11.160;2023-03-01T08:32:05;0.80;99.90
5705;DHT22;2877;48.238;11.160;2023-03-01T08:34:31;0.80;99.90
5705;DHT22;2877;48.238;11.160;2023-03-01T08:36:56;0.80;99.90
5705;DHT22;2877;48.238;11.160;2023-03-01T08:39:22;0.80;99.90
5705;DHT22;2877;48.238;11.160;2023-03-01T08:41:48;0.90;99.90
5705;DHT22;2877;48.238;11.160;2023-03-01T08:44:14;1.00;99.90
5705;DHT22;2877;48.238;11.160;2023-03-01T08:46:42;1.10;99.90
5705;DHT22;2877;48.238;11.160;2023-03-01T08:49:11;1.00;99.90
5705;DHT22;2877;48.238;11.160;2023-03-01T08:51:36;1.00;99.90
5705;DHT22;2877;48.238;11.160;2023-03-01T08:54:07;0.90;99.90
5705;DHT22;2877;48.238;11.160;2023-03-01T08:56:35;0.90;99.90
5705;DHT22;2877;48.238;11.160;2023-03-01T08:59:00;1.00;99.90
5705;DHT22;2877;48.238;11.160;2023-03-01T09:01:26;1.10;99.90
5705;DHT22;2877;48.238;11.160;2023-03-01T09:03:51;1.30;99.90
5705;DHT22;2877;48.238;11.160;2023-03-01T09:06:17;1.30;99.90
5705;DHT22;2877;48.238;11.160;2023-03-01T09:08:45;1.40;99.90
5705;DHT22;2877;48.238;11.160;2023-03-01T09:11:13;1.60;99.90
5705;DHT22;2877;48.238;11.160;2023-03-01T09:13:41;1.60;99.90
5705;DHT22;2877;48.238;11.160;2023-03-01T09:16:07;1.60;99.90
5705;DHT22;2877;48.238;11.160;2023-03-01T09:18:34;1.60;99.90
5705;DHT22;2877;48.238;11.160;2023-03-01T09:21:09;1.70;99.90
5705;DHT22;2877;48.238;11.160;2023-03-01T09:23:40;1.80;99.90
5705;DHT22;2877;48.238;11.160;2023-03-01T09:26:10;2.00;99.90
5705;DHT22;2877;48.238;11.160;2023-03-01T09:28:36;1.90;99.90
5705;DHT22;2877;48.238;11.160;2023-03-01T09:31:02;2.00;99.90
5705;DHT22;2877;48.238;11.160;2023-03-01T09:33:30;2.00;99.90
5705;DHT22;2877;48.238;11.160;2023-03-01T09:36:01;2.10;99.90
5705;DHT22;2877;48.238;11.160;2023-03-01T09:38:27;2.10;99.90
5705;DHT22;2877;48.238;11.160;2023-03-01T09:40:53;2.10;99.90
5705;DHT22;2877;48.238;11.160;2023-03-01T09:43:26;2.20;99.90
5705;DHT22;2877;48.238;11.160;2023-03-01T09:45:58;2.30;99.90
5705;DHT22;2877;48.238;11.160;2023-03-01T09:48:27;2.30;99.90
5705;DHT22;2877;48.238;11.160;2023-03-01T09:50:55;2.20;99.90
5705;DHT22;2877;48.238;11.160;2023-03-01T09:53:24;2.20;99.90
5705;DHT22;2877;48.238;11.160;2023-03-01T09:55:59;2.20;99.90
5705;DHT22;2877;48.238;11.160;2023-03-01T09:58:59;2.00;99.90
5705;DHT22;2877;48.238;11.160;2023-03-01T10:07:45;2.30;99.90
5705;DHT22;2877;48.238;11.160;2023-03-01T10:10:43;2.40;99.90
5705;DHT22;2877;48.238;11.160;2023-03-01T10:13:37;2.40;99.90
5705;DHT22;2877;48.238;11.160;2023-03-01T10:16:13;2.20;99.90
5705;DHT22;2877;48.238;11.160;2023-03-01T10:18:41;2.10;99.90
5705;DHT22;2877;48.238;11.160;2023-03-01T10:21:17;2.10;99.90
5705;DHT22;2877;48.238;11.160;2023-03-01T10:23:43;2.00;99.90
5705;DHT22;2877;48.238;11.160;2023-03-01T10:28:52;2.20;99.90
5705;DHT22;2877;48.238;11.160;2023-03-01T10:31:24;2.30;99.90
5705;DHT22;2877;48.238;11.160;2023-03-01T10:33:53;2.40;99.90
5705;DHT22;2877;48.238;11.160;2023-03-01T10:36:22;2.50;99.90
5705;DHT22;2877;48.238;11.160;2023-03-01T10:38:54;2.40;99.90
5705;DHT22;2877;48.238;11.160;2023-03-01T10:41:21;2.50;99.90
5705;DHT22;2877;48.238;11.160;2023-03-01T10:43:57;2.50;99.90
5705;DHT22;2877;48.238;11.160;2023-03-01T10:46:31;2.60;99.90
5705;DHT22;2877;48.238;11.160;2023-03-01T10:49:19;2.70;99.90
5705;DHT22;2877;48.238;11.160;2023-03-01T10:51:48;2.70;99.90
5705;DHT22;2877;48.238;11.160;2023-03-01T10:54:31;2.60;99.90
5705;DHT22;2877;48.238;11.160;2023-03-01T10:57:03;2.70;99.90
5705;DHT22;2877;48.238;11.160;2023-03-01T10:59:34;2.70;99.90
5705;DHT22;2877;48.238;11.160;2023-03-01T11:04:34;2.60;99.90
5705;DHT22;2877;48.238;11.160;2023-03-01T11:07:01;2.60;99.90
5705;DHT22;2877;48.238;11.160;2023-03-01T11:09:32;2.50;99.90
5705;DHT22;2877;48.238;11.160;2023-03-01T11:12:05;2.50;99.90
5705;DHT22;2877;48.238;11.160;2023-03-01T11:14:38;2.60;99.90
5705;DHT22;2877;48.238;11.160;2023-03-01T11:17:34;2.50;99.90
5705;DHT22;2877;48.238;11.160;2023-03-01T11:22:53;3.10;99.90
5705;DHT22;2877;48.238;11.160;2023-03-01T11:25:35;3.20;99.90
5705;DHT22;2877;48.238;11.160;2023-03-01T11:28:04;3.30;99.90
5705;DHT22;2877;48.238;11.160;2023-03-01T11:33:41;3.30;99.90
5705;DHT22;2877;48.238;11.160;2023-03-01T11:36:26;3.40;99.90
5705;DHT22;2877;48.238;11.160;2023-03-01T11:38:53;3.40;99.90
5705;DHT22;2877;48.238;11.160;2023-03-01T11:41:23;3.50;99.90
5705;DHT22;2877;48.238;11.160;2023-03-01T11:49:10;3.60;99.90
5705;DHT22;2877;48.238;11.160;2023-03-01T12:08:23;4.10;99.90
5705;DHT22;2877;48.238;11.160;2023-03-01T12:11:03;4.00;99.90
5705;DHT22;2877;48.238;11.160;2023-03-01T12:13:47;4.20;99.90
5705;DHT22;2877;48.238;11.160;2023-03-01T12:25:37;4.80;99.90
5705;DHT22;2877;48.238;11.160;2023-03-01T12:33:21;5.10;99.90
5705;DHT22;2877;48.238;11.160;2023-03-01T12:36:22;5.20;99.90
5705;DHT22;2877;48.238;11.160;2023-03-01T12:49:36;5.60;99.90
5705;DHT22;2877;48.238;11.160;2023-03-01T12:52:25;5.60;99.80
5705;DHT22;2877;48.238;11.160;2023-03-01T12:54:57;5.50;99.90
5705;DHT22;2877;48.238;11.160;2023-03-01T12:57:40;5.50;99.80
5705;DHT22;2877;48.238;11.160;2023-03-01T13:03:33;5.80;99.90
5705;DHT22;2877;48.238;11.160;2023-03-01T13:06:19;6.20;99.10
5705;DHT22;2877;48.238;11.160;2023-03-01T13:08:55;6.40;99.20
5705;DHT22;2877;48.238;11.160;2023-03-01T13:11:23;6.50;97.90
5705;DHT22;2877;48.238;11.160;2023-03-01T13:13:49;6.60;96.60
5705;DHT22;2877;48.238;11.160;2023-03-01T13:16:39;6.70;95.80
5705;DHT22;2877;48.238;11.160;2023-03-01T13:19:22;6.60;95.50
5705;DHT22;2877;48.238;11.160;2023-03-01T13:21:50;6.60;96.90
5705;DHT22;2877;48.238;11.160;2023-03-01T13:24:41;6.70;96.80
5705;DHT22;2877;48.238;11.160;2023-03-01T13:29:52;6.90;95.40
5705;DHT22;2877;48.238;11.160;2023-03-01T13:32:24;6.60;95.40
5705;DHT22;2877;48.238;11.160;2023-03-01T13:34:55;6.20;95.40
5705;DHT22;2877;48.238;11.160;2023-03-01T13:37:32;5.90;96.60
5705;DHT22;2877;48.238;11.160;2023-03-01T13:40:02;5.70;97.20
5705;DHT22;2877;48.238;11.160;2023-03-01T13:42:39;5.50;97.80
5705;DHT22;2877;48.238;11.160;2023-03-01T13:48:23;5.60;98.10
5705;DHT22;2877;48.238;11.160;2023-03-01T13:50:58;5.60;98.30
5705;DHT22;2877;48.238;11.160;2023-03-01T13:53:29;5.60;98.30
5705;DHT22;2877;48.238;11.160;2023-03-01T13:58:44;5.40;98.90
5705;DHT22;2877;48.238;11.160;2023-03-01T14:03:47;5.40;99.00
5705;DHT22;2877;48.238;11.160;2023-03-01T14:06:16;5.40;99.30
5705;DHT22;2877;48.238;11.160;2023-03-01T14:08:46;5.50;99.00
5705;DHT22;2877;48.238;11.160;2023-03-01T14:19:27;5.60;99.00
5705;DHT22;2877;48.238;11.160;2023-03-01T14:22:18;5.60;99.20
5705;DHT22;2877;48.238;11.160;2023-03-01T14:25:00;5.60;99.70
5705;DHT22;2877;48.238;11.160;2023-03-01T14:27:33;5.60;99.60
5705;DHT22;2877;48.238;11.160;2023-03-01T14:30:02;5.70;99.70
5705;DHT22;2877;48.238;11.160;2023-03-01T14:32:30;5.70;99.80
5705;DHT22;2877;48.238;11.160;2023-03-01T14:34:57;5.70;99.90
5705;DHT22;2877;48.238;11.160;2023-03-01T14:37:33;5.70;99.40
5705;DHT22;2877;48.238;11.160;2023-03-01T14:40:00;5.70;99.90
5705;DHT22;2877;48.238;11.160;2023-03-01T14:42:29;5.70;99.90
5705;DHT22;2877;48.238;11.160;2023-03-01T14:44:56;5.70;99.80
5705;DHT22;2877;48.238;11.160;2023-03-01T14:47:28;5.80;99.90
5705;DHT22;2877;48.238;11.160;2023-03-01T14:49:59;5.80;99.60
5705;DHT22;2877;48.238;11.160;2023-03-01T14:52:34;5.80;99.90
5705;DHT22;2877;48.238;11.160;2023-03-01T14:55:09;5.70;99.90
5705;DHT22;2877;48.238;11.160;2023-03-01T14:57:43;5.70;99.90
5705;DHT22;2877;48.238;11.160;2023-03-01T15:02:47;5.70;99.90
5705;DHT22;2877;48.238;11.160;2023-03-01T15:05:14;5.70;99.90
5705;DHT22;2877;48.238;11.160;2023-03-01T15:07:42;5.70;99.90
5705;DHT22;2877;48.238;11.160;2023-03-01T15:10:35;5.70;99.90
5705;DHT22;2877;48.238;11.160;2023-03-01T15:13:33;5.70;99.90
5705;DHT22;2877;48.238;11.160;2023-03-01T15:18:32;5.70;99.90
5705;DHT22;2877;48.238;11.160;2023-03-01T15:21:15;5.70;99.90
5705;DHT22;2877;48.238;11.160;2023-03-01T15:23:41;5.70;99.90
5705;DHT22;2877;48.238;11.160;2023-03-01T15:26:16;5.80;99.90
5705;DHT22;2877;48.238;11.160;2023-03-01T15:28:50;5.70;99.90
5705;DHT22;2877;48.238;11.160;2023-03-01T15:31:19;5.70;99.90
5705;DHT22;2877;48.238;11.160;2023-03-01T15:33:46;5.70;99.90
5705;DHT22;2877;48.238;11.160;2023-03-01T15:36:36;5.70;99.90
5705;DHT22;2877;48.238;11.160;2023-03-01T15:39:04;5.70;99.90
5705;DHT22;2877;48.238;11.160;2023-03-01T15:41:46;5.60;99.90
5705;DHT22;2877;48.238;11.160;2023-03-01T15:44:29;5.60;99.90
5705;DHT22;2877;48.238;11.160;2023-03-01T15:46:55;5.60;99.90
5705;DHT22;2877;48.238;11.160;2023-03-01T15:49:41;5.60;99.90
5705;DHT22;2877;48.238;11.160;2023-03-01T15:52:24;5.60;99.90
5705;DHT22;2877;48.238;11.160;2023-03-01T15:54:59;5.50;99.90
5705;DHT22;2877;48.238;11.160;2023-03-01T15:57:25;5.50;99.90
5705;DHT22;2877;48.238;11.160;2023-03-01T15:59:50;5.50;99.90
5705;DHT22;2877;48.238;11.160;2023-03-01T16:02:16;5.50;99.90
5705;DHT22;2877;48.238;11.160;2023-03-01T16:04:41;5.50;99.90
5705;DHT22;2877;48.238;11.160;2023-03-01T16:07:09;5.40;99.90
5705;DHT22;2877;48.238;11.160;2023-03-01T16:09:35;5.40;99.90
5705;DHT22;2877;48.238;11.160;2023-03-01T16:12:01;5.30;99.90
5705;DHT22;2877;48.238;11.160;2023-03-01T16:14:27;5.30;99.90
5705;DHT22;2877;48.238;11.160;2023-03-01T16:16:52;5.20;99.90
5705;DHT22;2877;48.238;11.160;2023-03-01T16:19:18;5.20;99.90
5705;DHT22;2877;48.238;11.160;2023-03-01T16:21:44;5.20;99.90
5705;DHT22;2877;48.238;11.160;2023-03-01T16:24:12;5.10;99.90
5705;DHT22;2877;48.238;11.160;2023-03-01T16:26:38;5.00;99.90
5705;DHT22;2877;48.238;11.160;2023-03-01T16:29:04;4.90;99.90
5705;DHT22;2877;48.238;11.160;2023-03-01T16:31:29;4.80;99.90
5705;DHT22;2877;48.238;11.160;2023-03-01T16:33:56;4.70;99.90
5705;DHT22;2877;48.238;11.160;2023-03-01T16:36:23;4.60;99.90
5705;DHT22;2877;48.238;11.160;2023-03-01T16:38:51;4.60;99.90
5705;DHT22;2877;48.238;11.160;2023-03-01T16:41:19;4.50;99.90
5705;DHT22;2877;48.238;11.160;2023-03-01T16:43:45;4.40;99.90
5705;DHT22;2877;48.238;11.160;2023-03-01T16:46:27;4.40;99.90
5705;DHT22;2877;48.238;11.160;2023-03-01T16:48:54;4.30;99.90
5705;DHT22;2877;48.238;11.160;2023-03-01T16:51:21;4.10;99.90
5705;DHT22;2877;48.238;11.160;2023-03-01T16:53:47;3.90;99.90
5705;DHT22;2877;48.238;11.160;2023-03-01T16:56:13;3.80;99.90
5705;DHT22;2877;48.238;11.160;2023-03-01T16:58:40;3.60;99.90
5705;DHT22;2877;48.238;11.160;2023-03-01T17:01:17;3.50;99.90
5705;DHT22;2877;48.238;11.160;2023-03-01T17:03:44;3.40;99.90
5705;DHT22;2877;48.238;11.160;2023-03-01T17:06:14;3.40;99.90
5705;DHT22;2877;48.238;11.160;2023-03-01T17:08:40;3.40;99.90
5705;DHT22;2877;48.238;11.160;2023-03-01T17:11:14;3.40;99.90
5705;DHT22;2877;48.238;11.160;2023-03-01T17:13:40;3.30;99.90
5705;DHT22;2877;48.238;11.160;2023-03-01T17:16:09;3.10;99.90
5705;DHT22;2877;48.238;11.160;2023-03-01T17:18:35;2.90;99.90
5705;DHT22;2877;48.238;11.160;2023-03-01T17:21:01;2.80;99.90
5705;DHT22;2877;48.238;11.160;2023-03-01T17:23:28;2.80;99.90
5705;DHT22;2877;48.238;11.160;2023-03-01T17:25:54;2.70;99.90
5705;DHT22;2877;48.238;11.160;2023-03-01T17:28:21;2.70;99.90
5705;DHT22;2877;48.238;11.160;2023-03-01T17:30:48;2.80;99.90
5705;DHT22;2877;48.238;11.160;2023-03-01T17:33:14;2.80;99.90
5705;DHT22;2877;48.238;11.160;2023-03-01T17:35:40;2.80;99.90
5705;DHT22;2877;48.238;11.160;2023-03-01T17:38:06;2.80;99.90
5705;DHT22;2877;48.238;11.160;2023-03-01T17:40:32;2.80;99.90
5705;DHT22;2877;48.238;11.160;2023-03-01T17:42:58;2.90;99.90
5705;DHT22;2877;48.238;11.160;2023-03-01T17:45:25;3.20;99.90
5705;DHT22;2877;48.238;11.160;2023-03-01T17:47:50;3.30;99.90